• Join FlightAware (Why Join?)
  • Login
  • US Flag 
05:59AM EDT


 

Airport Tracker/Info


-or-


 

Live Flight TrackerFlight Track Log ✈ N130MH ✈ 21-Jul-2013 ✈ KPTK - KDLH

Flight Track Log - Related Links

Times and Time Zones

All times are in EDT time to prevent confusion due to time zone crossing. See the N130MH flight status page for this flight to view local times or setup timezone preferences in your user account.

Time Position Orientation Groundspeed Altitude Reporting Facility
EDT Latitude Longitude Course Direction KTS MPH feet Rate Location/Type
04:22PM 42.6614 -83.4744 263° West 112 129 2,200  Level Cleveland Center
04:24PM 42.7044 -83.5520 307° West  Level Estimated
04:31PM 42.8979 -83.9037 307° West  Level Estimated
04:32PM 42.9255 -83.9541 307° West  Level Estimated
04:33PM 42.9530 -84.0046 307° West  Level Estimated
04:33PM 42.9540 -83.7620 307° West 165 190 5,800  Level FlightAware
04:34PM 42.9750 -83.8130 299° West 162 186 5,800  Level FlightAware
04:34PM 42.9820 -83.8320 297° West 162 186 5,800  Level FlightAware
04:34PM 42.9900 -83.8520 299° West 162 186 5,800  Level FlightAware
04:37PM 43.0250 -83.9704 292° West  Level FlightAware Approximate
04:37PM 43.0590 -84.0220 292° West 165 190 5,900  Level FlightAware
04:38PM 43.0410 -84.0247 292° West  Level FlightAware Approximate
04:38PM 43.0680 -84.0430 300° West 165 190 5,900  Level FlightAware
04:38PM 43.0780 -84.0700 297° West 168 193 5,900  Level FlightAware
04:39PM 43.0930 -84.1030 302° West 165 190 5,900  Level FlightAware
04:39PM 43.1000 -84.1180 303° West 165 190 5,900  Level FlightAware
04:40PM 43.1230 -84.1840 296° West 164 189 5,900 60 Level FlightAware
04:41PM 43.1300 -84.2080 292° West 164 189 6,000 120 Climbing FlightAware
04:41PM 43.1380 -84.2310 295° West 165 190 6,000  Level FlightAware
04:42PM 43.1480 -84.2590 296° West 167 192 6,000  Level FlightAware
04:42PM 43.1540 -84.2740 299° West 167 192 6,000  Level FlightAware
04:42PM 43.1610 -84.2940 296° West 168 193 6,000  Level FlightAware
04:43PM 43.1680 -84.3110 299° West 166 191 6,000  Level FlightAware
04:43PM 43.1770 -84.3350 297° West 167 192 6,000  Level FlightAware
04:43PM 43.1830 -84.3490 300° West 165 190 6,000  Level FlightAware
04:44PM 43.1920 -84.3750 295° West 166 191 6,000  Level FlightAware
04:44PM 43.2030 -84.4030 298° West 165 190 6,000  Level FlightAware
04:45PM 43.2110 -84.4240 298° West 166 191 6,000  Level FlightAware
04:45PM 43.2170 -84.4380 300° West 166 191 6,000  Level FlightAware
04:45PM 43.2280 -84.4680 297° West 165 190 6,000  Level FlightAware
04:46PM 43.2320 -84.4800 295° West 165 190 6,000  Level FlightAware
04:46PM 43.2390 -84.4980 298° West 166 191 6,000  Level FlightAware
04:46PM 43.2450 -84.5130 299° West 167 192 6,000  Level FlightAware
04:47PM 43.2540 -84.5370 297° West 167 192 6,000  Level FlightAware
04:47PM 43.2660 -84.5680 298° West 165 190 6,000  Level FlightAware
04:48PM 43.2750 -84.5920 297° West 164 189 6,000  Level FlightAware
04:48PM 43.2790 -84.6040 295° West 164 189 6,000  Level FlightAware
04:48PM 43.2880 -84.6260 299° West 168 193 6,000 -180 Level FlightAware
04:48PM 43.2940 -84.6420 297° West 167 192 5,900  Descending FlightAware
04:49PM 43.3020 -84.6630 298° West 164 189 6,000 60 Climbing FlightAware
04:49PM 43.3120 -84.6900 297° West 166 191 6,000  Level FlightAware
04:50PM 43.3180 -84.7050 299° West 169 194 6,000  Level FlightAware
04:50PM 43.3260 -84.7280 296° West 166 191 6,000  Level FlightAware
04:50PM 43.3330 -84.7470 297° West 173 199 6,000  Level FlightAware
04:51PM 43.3420 -84.7700 298° West 169 194 6,000  Level FlightAware
04:51PM 43.3520 -84.7950 299° West 172 198 6,000 -180 Level FlightAware
04:51PM 43.3580 -84.8120 296° West 166 191 5,900  Descending FlightAware
04:52PM 43.3680 -84.8390 297° West 172 198 6,000 60 Climbing FlightAware
04:52PM 43.3770 -84.8630 297° West 166 191 6,000  Level FlightAware
04:53PM 43.3830 -84.8780 299° West 165 190 6,000  Level FlightAware
04:53PM 43.3930 -84.9040 298° West 168 193 6,000  Level FlightAware
04:53PM 43.4010 -84.9270 296° West 164 189 6,000  Level FlightAware
04:54PM 43.4080 -84.9440 300° West 165 190 6,000  Level FlightAware
04:54PM 43.4180 -84.9710 297° West 169 194 6,000  Level FlightAware
04:55PM 43.4280 -84.9980 297° West 167 192 6,000  Level FlightAware
04:55PM 43.4370 -85.0240 295° West 169 194 6,000  Level FlightAware
04:55PM 43.4420 -85.0360 300° West 167 192 6,000  Level FlightAware
04:56PM 43.4520 -85.0630 297° West 173 199 6,000  Level FlightAware
04:56PM 43.4620 -85.0900 297° West 169 194 6,000  Level FlightAware
04:57PM 43.4680 -85.1050 299° West 168 193 6,000  Level FlightAware
04:57PM 43.4770 -85.1290 297° West 173 199 6,000  Level FlightAware
04:57PM 43.4850 -85.1510 297° West 169 194 6,000  Level FlightAware
04:58PM 43.4980 -85.1860 297° West 165 190 6,000  Level FlightAware
04:58PM 43.5070 -85.2110 296° West 166 191 6,000  Level FlightAware
04:59PM 43.5170 -85.2390 296° West 165 190 6,000  Level FlightAware
04:59PM 43.5210 -85.2490 299° West 165 190 6,000  Level FlightAware
05:00PM 43.5320 -85.2780 298° West 165 190 6,000  Level FlightAware
05:00PM 43.5390 -85.2980 296° West 166 191 6,000  Level FlightAware
05:00PM 43.5460 -85.3150 300° West 163 188 6,000  Level FlightAware
05:01PM 43.5550 -85.3400 296° West 162 186 6,000  Level FlightAware
05:01PM 43.5670 -85.3750 295° West 165 190 6,000  Level FlightAware
05:04PM 43.6260 -85.5350 297° West 164 189 6,000  Level FlightAware
05:05PM 43.6425 -85.5789 297° West 167 192 6,100  Climbing Chicago Center
05:06PM 43.6675 -85.6461 297° West 165 190 6,100  Level Chicago Center
05:07PM 43.6881 -85.7022 297° West 164 189 6,100  Level Chicago Center
05:08PM 43.7092 -85.7583 298° West 165 190 6,100  Level Chicago Center
05:09PM 43.7292 -85.8169 295° West 168 193 6,100  Level Chicago Center
05:10PM 43.7506 -85.8742 297° West 169 194 6,100 -60 Level Chicago Center
05:11PM 43.7711 -85.9319 296° West 168 193 6,000 -60 Descending Chicago Center
05:12PM 43.7969 -86.0017 297° West 170 196 6,000  Level Chicago Center
05:13PM 43.8175 -86.0611 296° West 171 197 6,000  Level Chicago Center
05:14PM 43.8383 -86.1178 297° West 169 194 6,000  Level Chicago Center
05:16PM 43.8633 -86.1897 296° West 173 199 6,000  Level Minneapolis Center
05:17PM 43.8844 -86.2481 297° West 172 198 6,000  Level Minneapolis Center
05:18PM 43.9058 -86.3072 297° West 172 198 6,000  Level Minneapolis Center
05:19PM 43.9300 -86.3767 296° West 168 193 6,000  Level Minneapolis Center
05:20PM 43.9511 -86.4353 297° West 169 194 6,000  Level Minneapolis Center
05:21PM 43.9714 -86.4933 296° West 170 196 6,000  Level Minneapolis Center
05:22PM 43.9922 -86.5514 297° West 169 194 6,000  Level Minneapolis Center
05:23PM 44.0133 -86.6103 297° West 170 196 6,000  Level Minneapolis Center
05:24PM 44.0372 -86.6808 295° West 169 194 6,000  Level Minneapolis Center
05:25PM 44.0581 -86.7394 296° West 170 196 6,000  Level Minneapolis Center
05:26PM 44.0783 -86.7989 295° West 170 196 6,000  Level Minneapolis Center
05:27PM 44.0997 -86.8569 297° West 169 194 6,000  Level Minneapolis Center
05:28PM 44.1200 -86.9161 296° West 171 197 6,000  Level Minneapolis Center
05:29PM 44.1406 -86.9736 296° West 168 193 6,000 -60 Level Minneapolis Center
05:30PM 44.1636 -87.0422 295° West 172 198 5,900 -60 Descending Minneapolis Center
05:31PM 44.1828 -87.1000 295° West 167 192 5,900  Level Minneapolis Center
05:32PM 44.2039 -87.1592 296° West 169 194 5,900  Level Minneapolis Center
05:33PM 44.2256 -87.2206 296° West 169 194 6,000  Climbing Minneapolis Center
05:34PM 44.2492 -87.2894 296° West 169 194 6,000  Level Minneapolis Center
05:35PM 44.2692 -87.3481 295° West 169 194 6,000  Level Minneapolis Center
05:36PM 44.2906 -87.4089 296° West 172 198 6,000  Level Minneapolis Center
05:37PM 44.3106 -87.4672 296° West 169 194 6,000  Level Minneapolis Center
05:38PM 44.3300 -87.5258 295° West 168 193 6,000  Level Minneapolis Center
05:39PM 44.3539 -87.5950 296° West 168 193 6,000  Level Minneapolis Center
05:41PM 44.3747 -87.6558 296° West 170 196 6,000  Level Minneapolis Center
05:42PM 44.3950 -87.7147 296° West 170 196 6,000  Level Minneapolis Center
05:43PM 44.4144 -87.7736 295° West 169 194 6,000  Level Minneapolis Center
05:44PM 44.4336 -87.8311 295° West 165 190 6,000  Level Minneapolis Center
05:45PM 44.4556 -87.8964 295° West 162 186 6,000  Level Minneapolis Center
05:46PM 44.4792 -87.9656 296° West 165 190 6,000  Level Minneapolis Center
05:47PM 44.4983 -88.0242 295° West 167 192 6,000  Level Minneapolis Center
05:48PM 44.5175 -88.0817 295° West 164 189 6,000  Level Minneapolis Center
05:49PM 44.5389 -88.1464 295° West 161 185 6,000  Level Minneapolis Center
05:50PM 44.5592 -88.2033 297° West 161 185 6,000  Level Minneapolis Center
05:51PM 44.5964 -88.2417 324° Northwest 166 191 6,000  Level Minneapolis Center
05:52PM 44.6325 -88.2853 319° Northwest 169 194 6,000  Level Minneapolis Center
05:53PM 44.6678 -88.3239 322° Northwest 165 190 6,000  Level Minneapolis Center
05:54PM 44.7086 -88.3714 320° Northwest 164 189 6,000  Level Minneapolis Center
05:55PM 44.7450 -88.4119 322° Northwest 166 191 6,000  Level Minneapolis Center
05:56PM 44.7808 -88.4544 320° Northwest 168 193 6,000  Level Minneapolis Center
05:57PM 44.8178 -88.4964 321° Northwest 171 197 6,000  Level Minneapolis Center
05:58PM 44.8547 -88.5375 322° Northwest 170 196 6,000  Level Minneapolis Center
05:59PM 44.8975 -88.5894 319° Northwest 172 198 6,000  Level Minneapolis Center
06:00PM 44.9356 -88.6350 320° Northwest 177 204 6,000  Level Minneapolis Center
06:01PM 44.9728 -88.6778 321° Northwest 175 201 6,000  Level Minneapolis Center
06:02PM 45.0036 -88.7133 321° Northwest 174 200 6,000  Level Minneapolis Center
06:03PM 45.0467 -88.7647 320° Northwest 173 199 6,000  Level Minneapolis Center
06:05PM 45.0839 -88.8069 321° Northwest 172 198 6,000  Level Minneapolis Center
06:06PM 45.1206 -88.8494 321° Northwest 170 196 6,000  Level Minneapolis Center
06:07PM 45.1636 -88.9011 320° Northwest 171 197 6,000  Level Minneapolis Center
06:08PM 45.2000 -88.9428 321° Northwest 169 194 6,000  Level Minneapolis Center
06:09PM 45.2350 -88.9847 320° Northwest 166 191 6,000  Level Minneapolis Center
06:10PM 45.2714 -89.0261 321° Northwest 167 192 6,000  Level Minneapolis Center
06:11PM 45.3064 -89.0697 319° Northwest 169 194 6,000  Level Minneapolis Center
06:12PM 45.3500 -89.1206 321° Northwest 169 194 6,000  Level Minneapolis Center
06:13PM 45.3928 -89.1708 320° Northwest 166 191 6,000  Level Minneapolis Center
06:14PM 45.4281 -89.2136 320° Northwest 166 191 6,000  Level Minneapolis Center
06:15PM 45.4642 -89.2564 320° Northwest 168 193 6,000  Level Minneapolis Center
06:16PM 45.5000 -89.2969 322° Northwest 166 191 6,000  Level Minneapolis Center
06:17PM 45.5417 -89.3478 319° Northwest 165 190 6,000  Level Minneapolis Center
06:18PM 45.5761 -89.3900 319° Northwest 164 189 6,000  Level Minneapolis Center
06:19PM 45.6172 -89.4392 320° Northwest 162 186 6,000  Level Minneapolis Center
06:20PM 45.6461 -89.4878 310° West 162 186 6,000  Level Minneapolis Center
06:21PM 45.6706 -89.5414 303° West 161 185 6,000  Level Minneapolis Center
06:23PM 45.6939 -89.5953 302° West 160 184 6,000  Level Minneapolis Center
06:24PM 45.7183 -89.6492 303° West 160 184 6,000  Level Minneapolis Center
06:25PM 45.7425 -89.7039 302° West 161 185 6,000  Level Minneapolis Center
06:26PM 45.7719 -89.7722 302° West 164 189 6,000  Level Minneapolis Center
06:27PM 45.7972 -89.8272 303° West 165 190 6,000  Level Minneapolis Center
06:28PM 45.8217 -89.8828 302° West 165 190 6,000  Level Minneapolis Center
06:29PM 45.8464 -89.9397 302° West 166 191 6,000  Level Minneapolis Center
06:30PM 45.8714 -89.9961 303° West 167 192 6,000  Level Minneapolis Center
06:31PM 45.8964 -90.0525 303° West 167 192 6,000  Level Minneapolis Center
06:32PM 45.9200 -90.1078 302° West 165 190 6,000  Level Minneapolis Center
06:33PM 45.9497 -90.1758 302° West 165 190 6,000 -60 Level Minneapolis Center
06:34PM 45.9750 -90.2336 302° West 168 193 5,900  Descending Minneapolis Center
06:35PM 45.9972 -90.2906 299° West 167 192 6,000  Climbing Minneapolis Center
06:36PM 46.0247 -90.3469 305° West 168 193 6,000  Level Minneapolis Center
06:37PM 46.0486 -90.4028 302° West 167 192 6,000  Level Minneapolis Center
06:38PM 46.0706 -90.4594 299° West 165 190 6,000  Level Minneapolis Center
06:39PM 46.1028 -90.5269 305° West 166 191 6,000  Level Minneapolis Center
06:40PM 46.1269 -90.5839 301° West 168 193 6,000  Level Minneapolis Center
06:41PM 46.1439 -90.6281 299° West 164 189 6,000  Level Minneapolis Center
06:42PM 46.1725 -90.6964 301° West 164 189 6,000  Level Minneapolis Center
06:43PM 46.1978 -90.7525 303° West 165 190 6,000  Level Minneapolis Center
06:49PM 46.3470 -91.1010 303° West 168 193 6,000  Level FlightAware
06:49PM 46.3530 -91.1150 302° West 168 193 6,000  Level FlightAware
06:50PM 46.3620 -91.1370 301° West 168 193 6,000  Level FlightAware
06:50PM 46.3750 -91.1670 302° West 168 193 6,000  Level FlightAware
06:51PM 46.3890 -91.2000 302° West 166 191 6,000  Level FlightAware
06:51PM 46.4000 -91.2270 301° West 166 191 6,000  Level FlightAware
06:52PM 46.4100 -91.2510 301° West 166 191 6,000  Level FlightAware
06:52PM 46.4200 -91.2740 302° West 165 190 6,000  Level FlightAware
06:53PM 46.4310 -91.3000 302° West 162 186 6,000 -120 Level FlightAware
06:53PM 46.4420 -91.3270 301° West 172 198 5,900 -420 Descending FlightAware
06:53PM 46.4480 -91.3420 300° West 176 203 5,700 -660 Descending FlightAware
06:54PM 46.4580 -91.3660 301° West 181 208 5,500 -660 Descending FlightAware
06:54PM 46.4730 -91.4010 302° West 185 213 5,100 -660 Descending FlightAware
06:55PM 46.4840 -91.4270 302° West 185 213 4,900 -600 Descending FlightAware
06:55PM 46.4960 -91.4560 301° West 183 211 4,600 -660 Descending FlightAware
06:56PM 46.5080 -91.4860 300° West 182 209 4,300 -540 Descending FlightAware
06:56PM 46.5200 -91.5160 300° West 182 209 4,100 -360 Descending FlightAware
06:57PM 46.5330 -91.5450 303° West 170 196 4,000 -180 Descending FlightAware
06:57PM 46.5410 -91.5640 301° West 166 191 4,000  Level FlightAware
06:57PM 46.5510 -91.5890 300° West 165 190 4,000  Level FlightAware
06:58PM 46.5620 -91.6160 301° West 163 188 4,000  Level FlightAware
06:58PM 46.5740 -91.6450 301° West 164 189 4,000  Level FlightAware
06:59PM 46.5840 -91.6700 300° West 164 189 4,000  Level FlightAware
06:59PM 46.5940 -91.6930 302° West 163 188 4,000  Level FlightAware
06:59PM 46.5980 -91.7040 298° West 163 188 4,000  Level FlightAware
07:00PM 46.6090 -91.7300 302° West 161 185 4,000  Level FlightAware
07:00PM 46.6200 -91.7570 301° West 162 186 4,000  Level FlightAware
07:01PM 46.6310 -91.7820 303° West 163 188 4,000  Level FlightAware
07:01PM 46.6410 -91.8090 298° West 161 185 4,000  Level FlightAware
07:01PM 46.6470 -91.8230 302° West 161 185 4,000  Level FlightAware
07:02PM 46.6580 -91.8500 301° West 162 186 4,000  Level FlightAware
07:02PM 46.6680 -91.8730 302° West 162 186 4,000  Level FlightAware
07:03PM 46.6800 -91.9020 301° West 162 186 4,000  Level FlightAware
07:03PM 46.6910 -91.9290 301° West 164 189 4,000  Level FlightAware
07:04PM 46.7000 -91.9510 301° West 165 190 4,000  Level FlightAware
07:04PM 46.7040 -91.9590 306° West 166 191 4,000  Level FlightAware
07:04PM 46.7100 -91.9690 311° West 166 191 4,000 -360 Level FlightAware
07:05PM 46.7250 -91.9940 311° West 178 205 3,800 -600 Descending FlightAware
07:05PM 46.7330 -92.0080 310° West 182 209 3,600 -660 Descending FlightAware
07:05PM 46.7500 -92.0360 312° West 184 212 3,300 -600 Descending FlightAware
07:06PM 46.7640 -92.0600 310° West 185 213 3,100 -660 Descending FlightAware
07:06PM 46.7770 -92.0820 311° West 175 201 2,800 -600 Descending FlightAware
07:07PM 46.7910 -92.1060 310° West 168 193 2,600 -480 Descending FlightAware
07:07PM 46.8050 -92.1290 312° West 159 183 2,400 -240 Descending FlightAware
07:08PM 46.8190 -92.1530 310° West 148 170 2,400 -180 Level FlightAware
07:08PM 46.8220 -92.1650 290° West 151 174 2,300  Descending FlightAware
07:08PM 46.8240 -92.1910 276° West 139 160 2,400 240 Climbing FlightAware
07:08PM 46.8260 -92.2060 281° West 124 143 2,500  Climbing FlightAware
07:09PM 46.8270 -92.2290 274° West 122 140 2,400 -360 Descending FlightAware
07:09PM 46.8320 -92.2460 293° West 113 130 2,200 -360 Descending FlightAware
07:10PM 46.8370 -92.2480 345° North 91 105 2,200 -420 Level FlightAware
07:10PM 46.8430 -92.2430 30° Northeast 85 98 2,000 -900 Descending FlightAware
07:10PM 46.8430 -92.2340 90° East 83 96 1,700 -660 Descending FlightAware
07:10PM 46.8430 -92.2230 90° East 82 94 1,600 -300 Descending FlightAware
07:13PM 46.8400 -92.1980 100° East 24 28 -660 Descending FlightAware
07:13PM 46.8400 -92.2000 270° West 30 35  Level FlightAware
07:14PM 46.8390 -92.2000 180° South 23 26  Level FlightAware
07:14PM 46.8390 -92.2010 270° West 11 13  Level FlightAware
07:18PM 46.8421 -92.1936 90° East  Level Estimated
07:19PM 46.8421 -92.1936 90° East  Level Estimated